Time;durP1;ratioP1;P1;durP2;ratioP2;P2;SDS_P1;SDS_P2;PMS_P1;PMS_P2;Temp;Humidity;BMP_temperature;BMP_pressure;BME280_temperature;BME280_humidity;BME280_pressure;Samples;Min_cycle;Max_cycle;Signal;HPM_P1;HPM_P2
2022/10/26 00:02:15;;;;;;;;;;;;;;;;;;4956981;28;19917;-56
2022/10/26 00:04:41;;;;;;;;;;;;;;;;;;4974001;28;20323;-55
2022/10/26 00:07:06;;;;;;;;;;;;;;;;;;4957293;28;19932;-55
2022/10/26 00:09:31;;;;;;;;;;;;;;;;;;4972762;28;20426;-55
2022/10/26 00:11:56;;;;;;;;;;;;;;;;;;4960171;28;19925;-55
2022/10/26 00:14:22;;;;;;;;;;;;;;;;;;4961103;28;19925;-56
2022/10/26 00:16:47;;;;;;;;;;;;;;;;;;4960920;28;19918;-55
2022/10/26 00:19:12;;;;;;;;;;;;;;;;;;4965583;28;19922;-55
2022/10/26 00:21:38;;;;;;;;;;;;;;;;;;4960553;28;20304;-56
2022/10/26 00:24:03;;;;;;;;;;;;;;;;;;4955521;28;19964;-54
2022/10/26 00:26:28;;;;;;;;;;;;;;;;;;4960614;28;19926;-56
2022/10/26 00:28:55;;;;;;;;;;;;;;;;;;4961504;28;19925;-55
2022/10/26 00:31:21;;;;;;;;;;;;;;;;;;4963210;28;19928;-55
2022/10/26 00:33:46;;;;;;;;;;;;;;;;;;4968415;28;19921;-55
2022/10/26 00:36:15;;;;;;;;;;;;;;;;;;4969609;28;20379;-55
2022/10/26 00:38:44;;;;;;;;;;;;;;;;;;4960360;28;20013;-55
2022/10/26 00:41:17;;;;;;;;;;;;;;;;;;4961732;28;20009;-55
2022/10/26 00:43:43;;;;;;;;;;;;;;;;;;4963277;28;20001;-55
2022/10/26 00:46:11;;;;;;;;;;;;;;;;;;4963537;28;20060;-55
2022/10/26 00:48:44;;;;;;;;;;;;;;;;;;4960985;28;19918;-56
2022/10/26 00:51:13;;;;;;;;;;;;;;;;;;4958438;28;19927;-55
2022/10/26 00:53:39;;;;;;;;;;;;;;;;;;4965481;28;21352;-55
2022/10/26 00:56:04;;;;;;;;;;;;;;;;;;4958421;28;19918;-55
2022/10/26 00:58:30;;;;;;;;;;;;;;;;;;4964347;28;20013;-55
2022/10/26 01:00:55;;;;;;;;;;;;;;;;;;4959550;28;20068;-55
2022/10/26 01:03:24;;;;;;;;;;;;;;;;;;4963554;28;20009;-56
2022/10/26 01:05:50;;;;;;;;;;;;;;;;;;4961570;28;19922;-56
2022/10/26 01:08:17;;;;;;;;;;;;;;;;;;4954246;28;20396;-57
2022/10/26 01:10:42;;;;;;;;;;;;;;;;;;4960467;28;19918;-57
2022/10/26 01:13:08;;;;;;;;;;;;;;;;;;4956956;28;19925;-56
2022/10/26 01:15:56;;;;;;;;;;;;;;;;;;4959781;28;19924;-57
2022/10/26 01:18:22;;;;;;;;;;;;;;;;;;4959674;28;19929;-55
2022/10/26 01:21:06;;;;;;;;;;;;;;;;;;4968267;28;19923;-56
2022/10/26 01:23:43;;;;;;;;;;;;;;;;;;4956686;28;20421;-55
2022/10/26 01:26:08;;;;;;;;;;;;;;;;;;4962057;28;20492;-57
2022/10/26 01:28:49;;;;;;;;;;;;;;;;;;4961521;28;19924;-56
2022/10/26 01:31:19;;;;;;;;;;;;;;;;;;4960672;28;19997;-56
2022/10/26 01:33:50;;;;;;;;;;;;;;;;;;4964187;28;19918;-56
2022/10/26 01:36:33;;;;;;;;;;;;;;;;;;4957413;28;20450;-55
2022/10/26 01:39:05;;;;;;;;;;;;;;;;;;4960572;28;20648;-57
2022/10/26 01:41:42;;;;;;;;;;;;;;;;;;4957945;28;19926;-56
2022/10/26 01:44:11;;;;;;;;;;;;;;;;;;4959745;28;20394;-56
2022/10/26 01:46:38;;;;;;;;;;;;;;;;;;4960565;28;19918;-56
2022/10/26 01:49:06;;;;;;;;;;;;;;;;;;4963960;28;20432;-57
2022/10/26 01:51:33;;;;;;;;;;;;;;;;;;4955530;28;20550;-56
2022/10/26 01:53:58;;;;;;;;;;;;;;;;;;4965499;28;20388;-56
2022/10/26 01:56:26;;;;;;;;;;;;;;;;;;4961568;28;19984;-56
2022/10/26 01:58:55;;;;;;;;;;;;;;;;;;4968597;28;19950;-56
2022/10/26 02:01:21;;;;;;;;;;;;;;;;;;4957314;28;19919;-56
2022/10/26 02:03:49;;;;;;;;;;;;;;;;;;4960369;28;19922;-55
2022/10/26 02:06:14;;;;;;;;;;;;;;;;;;4971823;28;20298;-56
2022/10/26 02:08:47;;;;;;;;;;;;;;;;;;4980815;28;19922;-56
2022/10/26 02:11:12;;;;;;;;;;;;;;;;;;4958977;28;19918;-57
2022/10/26 02:13:45;;;;;;;;;;;;;;;;;;4960689;28;20403;-56
2022/10/26 02:16:22;;;;;;;;;;;;;;;;;;4956755;28;19918;-57
2022/10/26 02:18:47;;;;;;;;;;;;;;;;;;4960834;28;20411;-55
2022/10/26 02:21:18;;;;;;;;;;;;;;;;;;4964078;28;20035;-56
2022/10/26 02:23:45;;;;;;;;;;;;;;;;;;4964590;28;20407;-56
2022/10/26 02:26:12;;;;;;;;;;;;;;;;;;4963490;28;20367;-55
2022/10/26 02:28:40;;;;;;;;;;;;;;;;;;4959784;28;19927;-55
2022/10/26 02:31:06;;;;;;;;;;;;;;;;;;4966328;28;19944;-55
2022/10/26 02:33:35;;;;;;;;;;;;;;;;;;4958553;28;19923;-55
2022/10/26 02:36:02;;;;;;;;;;;;;;;;;;4964757;28;19918;-55
2022/10/26 02:38:28;;;;;;;;;;;;;;;;;;4960913;28;19922;-55
2022/10/26 02:40:55;;;;;;;;;;;;;;;;;;4963669;28;19933;-55
2022/10/26 02:43:22;;;;;;;;;;;;;;;;;;4960270;28;19918;-55
2022/10/26 02:45:51;;;;;;;;;;;;;;;;;;4960060;28;19929;-55
2022/10/26 02:48:16;;;;;;;;;;;;;;;;;;4964201;28;19922;-55
2022/10/26 02:50:44;;;;;;;;;;;;;;;;;;4970997;28;19919;-55
2022/10/26 02:53:17;;;;;;;;;;;;;;;;;;4959057;28;20291;-55
2022/10/26 02:55:45;;;;;;;;;;;;;;;;;;4958547;28;19918;-55
2022/10/26 02:58:13;;;;;;;;;;;;;;;;;;4961212;28;20276;-55
2022/10/26 03:00:39;;;;;;;;;;;;;;;;;;4959396;28;19946;-55
2022/10/26 03:03:04;;;;;;;;;;;;;;;;;;4961455;28;19918;-56
2022/10/26 03:05:35;;;;;;;;;;;;;;;;;;4962021;28;19988;-55
2022/10/26 03:08:00;;;;;;;;;;;;;;;;;;4953311;28;20061;-55
2022/10/26 03:10:26;;;;;;;;;;;;;;;;;;4955834;28;20452;-55
2022/10/26 03:12:52;;;;;;;;;;;;;;;;;;4955824;28;20349;-55
2022/10/26 03:15:17;;;;;;;;;;;;;;;;;;4957459;28;19919;-55
2022/10/26 03:17:42;;;;;;;;;;;;;;;;;;4962007;28;20021;-55
2022/10/26 03:20:08;;;;;;;;;;;;;;;;;;4968222;28;19964;-54
2022/10/26 03:22:33;;;;;;;;;;;;;;;;;;4964194;28;19918;-55
2022/10/26 03:24:58;;;;;;;;;;;;;;;;;;4964285;28;19965;-55
2022/10/26 03:27:25;;;;;;;;;;;;;;;;;;4963459;28;19925;-55
2022/10/26 03:29:51;;;;;;;;;;;;;;;;;;4962542;28;19918;-54
2022/10/26 03:32:16;;;;;;;;;;;;;;;;;;4963505;28;19919;-54
2022/10/26 03:34:41;;;;;;;;;;;;;;;;;;4962518;28;19926;-55
2022/10/26 03:37:06;;;;;;;;;;;;;;;;;;4971555;28;19925;-55
2022/10/26 03:39:32;;;;;;;;;;;;;;;;;;4963362;28;19936;-55
2022/10/26 03:41:58;;;;;;;;;;;;;;;;;;4963336;28;19918;-55
2022/10/26 03:44:23;;;;;;;;;;;;;;;;;;4959847;28;19918;-55
2022/10/26 03:46:48;;;;;;;;;;;;;;;;;;4962082;28;19925;-55
2022/10/26 03:49:14;;;;;;;;;;;;;;;;;;4965347;28;19958;-55
2022/10/26 03:51:39;;;;;;;;;;;;;;;;;;4960207;28;20343;-56
2022/10/26 03:54:04;;;;;;;;;;;;;;;;;;4966543;28;19918;-55
2022/10/26 03:56:29;;;;;;;;;;;;;;;;;;4963161;28;19941;-55
2022/10/26 03:58:55;;;;;;;;;;;;;;;;;;4960933;28;19929;-55
2022/10/26 04:01:20;;;;;;;;;;;;;;;;;;4956795;28;19919;-56
2022/10/26 04:03:45;;;;;;;;;;;;;;;;;;4960033;28;19918;-55
2022/10/26 04:06:10;;;;;;;;;;;;;;;;;;4960636;28;19941;-55
2022/10/26 04:08:36;;;;;;;;;;;;;;;;;;4957683;28;19928;-55
2022/10/26 04:11:03;;;;;;;;;;;;;;;;;;4953831;28;20121;-55
2022/10/26 04:13:28;;;;;;;;;;;;;;;;;;4954423;28;19919;-55
2022/10/26 04:15:53;;;;;;;;;;;;;;;;;;4960606;28;19957;-57
2022/10/26 04:18:19;;;;;;;;;;;;;;;;;;4958368;28;20068;-56
2022/10/26 04:20:44;;;;;;;;;;;;;;;;;;4964049;28;20387;-56
2022/10/26 04:23:13;;;;;;;;;;;;;;;;;;4963682;28;20069;-56
2022/10/26 04:25:39;;;;;;;;;;;;;;;;;;4963087;28;19921;-56
2022/10/26 04:28:05;;;;;;;;;;;;;;;;;;4969443;28;20412;-56
2022/10/26 04:30:31;;;;;;;;;;;;;;;;;;4970651;28;20395;-56
2022/10/26 04:32:56;;;;;;;;;;;;;;;;;;4965915;28;20300;-56
2022/10/26 04:35:21;;;;;;;;;;;;;;;;;;4965865;28;19922;-56
2022/10/26 04:37:47;;;;;;;;;;;;;;;;;;4970177;28;19930;-56
2022/10/26 04:40:12;;;;;;;;;;;;;;;;;;4971589;28;19922;-55
2022/10/26 04:42:44;;;;;;;;;;;;;;;;;;4966282;28;19914;-56
2022/10/26 04:45:10;;;;;;;;;;;;;;;;;;4968901;28;20302;-56
2022/10/26 04:47:35;;;;;;;;;;;;;;;;;;4960113;28;19918;-56
2022/10/26 04:50:00;;;;;;;;;;;;;;;;;;4968732;28;19929;-56
2022/10/26 04:52:26;;;;;;;;;;;;;;;;;;4988323;28;19918;-56
2022/10/26 04:54:51;;;;;;;;;;;;;;;;;;4968993;28;20344;-56
2022/10/26 04:57:16;;;;;;;;;;;;;;;;;;4962589;28;19925;-56
2022/10/26 04:59:41;;;;;;;;;;;;;;;;;;4964966;28;19926;-57
2022/10/26 05:02:07;;;;;;;;;;;;;;;;;;4965820;28;20433;-57
2022/10/26 05:04:32;;;;;;;;;;;;;;;;;;4968979;28;19918;-59
2022/10/26 05:06:57;;;;;;;;;;;;;;;;;;4964259;28;19975;-59
2022/10/26 05:09:22;;;;;;;;;;;;;;;;;;4966746;28;19925;-59
2022/10/26 05:11:48;;;;;;;;;;;;;;;;;;4968984;28;19981;-59
2022/10/26 05:14:13;;;;;;;;;;;;;;;;;;4981776;28;19941;-59
2022/10/26 05:16:38;;;;;;;;;;;;;;;;;;4964551;28;19914;-59
2022/10/26 05:19:03;;;;;;;;;;;;;;;;;;4966550;28;20302;-59
2022/10/26 05:21:29;;;;;;;;;;;;;;;;;;4969209;28;20020;-59
2022/10/26 05:23:54;;;;;;;;;;;;;;;;;;4969393;28;19940;-59
2022/10/26 05:26:21;;;;;;;;;;;;;;;;;;4969608;28;20006;-59
2022/10/26 05:28:46;;;;;;;;;;;;;;;;;;4962289;28;19920;-59
2022/10/26 05:31:12;;;;;;;;;;;;;;;;;;4968980;28;19933;-59
2022/10/26 05:33:37;;;;;;;;;;;;;;;;;;4965190;28;20414;-59
2022/10/26 05:36:03;;;;;;;;;;;;;;;;;;4965589;28;19961;-59
2022/10/26 05:38:28;;;;;;;;;;;;;;;;;;4968105;28;19975;-59
2022/10/26 05:40:53;;;;;;;;;;;;;;;;;;4965370;28;20302;-59
2022/10/26 05:43:21;;;;;;;;;;;;;;;;;;4963469;28;19918;-59
2022/10/26 05:45:46;;;;;;;;;;;;;;;;;;4964820;28;19914;-59
2022/10/26 05:48:11;;;;;;;;;;;;;;;;;;4966334;28;19918;-59
2022/10/26 05:50:37;;;;;;;;;;;;;;;;;;4960669;28;19921;-59
2022/10/26 05:53:02;;;;;;;;;;;;;;;;;;4958905;28;20474;-59
2022/10/26 05:55:27;;;;;;;;;;;;;;;;;;4964396;28;19914;-59
2022/10/26 05:57:53;;;;;;;;;;;;;;;;;;4960958;28;21336;-58
2022/10/26 06:00:20;;;;;;;;;;;;;;;;;;4967480;28;19921;-59
2022/10/26 06:02:54;;;;;;;;;;;;;;;;;;4959849;28;20379;-59
2022/10/26 06:05:25;;;;;;;;;;;;;;;;;;4964473;28;19918;-60
2022/10/26 06:07:50;;;;;;;;;;;;;;;;;;4958831;28;19925;-58
2022/10/26 06:10:16;;;;;;;;;;;;;;;;;;4964376;28;20074;-58
2022/10/26 06:12:41;;;;;;;;;;;;;;;;;;4959685;28;19929;-59
2022/10/26 06:15:08;;;;;;;;;;;;;;;;;;4955158;28;19941;-59
2022/10/26 06:17:52;;;;;;;;;;;;;;;;;;4967875;28;19914;-59
2022/10/26 06:20:29;;;;;;;;;;;;;;;;;;4957167;28;19922;-58
2022/10/26 06:23:10;;;;;;;;;;;;;;;;;;4959364;28;19918;-58
2022/10/26 06:25:44;;;;;;;;;;;;;;;;;;4957853;28;19930;-58
2022/10/26 06:28:12;;;;;;;;;;;;;;;;;;4999378;28;19927;-58
2022/10/26 06:30:39;;;;;;;;;;;;;;;;;;4964462;28;19929;-59
2022/10/26 06:33:04;;;;;;;;;;;;;;;;;;4991611;28;19918;-59
2022/10/26 06:35:49;;;;;;;;;;;;;;;;;;4975879;28;19925;-58
2022/10/26 06:38:19;;;;;;;;;;;;;;;;;;4965905;28;19980;-59
2022/10/26 06:40:47;;;;;;;;;;;;;;;;;;4964088;28;20437;-59
2022/10/26 06:43:15;;;;;;;;;;;;;;;;;;4967483;28;20472;-58
2022/10/26 06:45:42;;;;;;;;;;;;;;;;;;4956631;28;19926;-58
2022/10/26 06:48:09;;;;;;;;;;;;;;;;;;4958351;28;19922;-58
2022/10/26 06:50:35;;;;;;;;;;;;;;;;;;4966910;28;19919;-58
2022/10/26 06:53:20;;;;;;;;;;;;;;;;;;4960067;28;19971;-58
2022/10/26 06:55:47;;;;;;;;;;;;;;;;;;4964245;28;19918;-58
2022/10/26 06:58:17;;;;;;;;;;;;;;;;;;4958638;28;19932;-58
2022/10/26 07:00:43;;;;;;;;;;;;;;;;;;4957424;28;19930;-58
2022/10/26 07:03:08;;;;;;;;;;;;;;;;;;4966080;28;19919;-58
2022/10/26 07:05:34;;;;;;;;;;;;;;;;;;4963776;28;19918;-58
2022/10/26 07:07:59;;;;;;;;;;;;;;;;;;4986572;28;20418;-58
2022/10/26 07:10:24;;;;;;;;;;;;;;;;;;4960161;28;19925;-58
2022/10/26 07:12:49;;;;;;;;;;;;;;;;;;4960878;28;20021;-58
2022/10/26 07:15:15;;;;;;;;;;;;;;;;;;4955614;28;20329;-58
2022/10/26 07:17:44;;;;;;;;;;;;;;;;;;4966267;28;20015;-58
2022/10/26 07:20:10;;;;;;;;;;;;;;;;;;4981732;28;20352;-58
2022/10/26 07:22:36;;;;;;;;;;;;;;;;;;4964378;28;19925;-59
2022/10/26 07:25:01;;;;;;;;;;;;;;;;;;4966059;28;20370;-58
2022/10/26 07:27:27;;;;;;;;;;;;;;;;;;4966116;28;20001;-58
2022/10/26 07:29:52;;;;;;;;;;;;;;;;;;4967306;28;19918;-56
2022/10/26 07:32:17;;;;;;;;;;;;;;;;;;4966566;28;19918;-58
2022/10/26 07:34:42;;;;;;;;;;;;;;;;;;4979538;28;20054;-58
2022/10/26 07:37:08;;;;;;;;;;;;;;;;;;4969092;28;19918;-59
2022/10/26 07:39:33;;;;;;;;;;;;;;;;;;4968246;28;19972;-58
2022/10/26 07:41:58;;;;;;;;;;;;;;;;;;4964482;28;19925;-58
2022/10/26 07:44:23;;;;;;;;;;;;;;;;;;4968459;28;19922;-58
2022/10/26 07:46:49;;;;;;;;;;;;;;;;;;4964473;28;19972;-58
2022/10/26 07:49:15;;;;;;;;;;;;;;;;;;4974278;28;19918;-58
2022/10/26 07:51:40;;;;;;;;;;;;;;;;;;4964131;28;19922;-59
2022/10/26 07:54:05;;;;;;;;;;;;;;;;;;4965268;28;20291;-58
2022/10/26 07:56:31;;;;;;;;;;;;;;;;;;4978574;28;19961;-58
2022/10/26 07:58:57;;;;;;;;;;;;;;;;;;4978255;28;19929;-59
2022/10/26 08:01:22;;;;;;;;;;;;;;;;;;4973158;28;19918;-58
2022/10/26 08:03:50;;;;;;;;;;;;;;;;;;4972573;28;19982;-58
2022/10/26 08:06:15;;;;;;;;;;;;;;;;;;4963085;28;19919;-58
2022/10/26 08:08:40;;;;;;;;;;;;;;;;;;4967236;28;20595;-58
2022/10/26 08:11:06;;;;;;;;;;;;;;;;;;4963013;28;19918;-58
2022/10/26 08:13:34;;;;;;;;;;;;;;;;;;4956196;28;19922;-58
2022/10/26 08:16:00;;;;;;;;;;;;;;;;;;4995969;28;19926;-59
2022/10/26 08:18:25;;;;;;;;;;;;;;;;;;4967951;28;19930;-58
2022/10/26 08:20:51;;;;;;;;;;;;;;;;;;4990605;28;19928;-58
2022/10/26 08:23:16;;;;;;;;;;;;;;;;;;4966703;28;19926;-58
2022/10/26 08:25:41;;;;;;;;;;;;;;;;;;4964444;28;19926;-59
2022/10/26 08:28:06;;;;;;;;;;;;;;;;;;4983243;28;19918;-58
2022/10/26 08:30:32;;;;;;;;;;;;;;;;;;4963311;28;19924;-58
2022/10/26 08:32:58;;;;;;;;;;;;;;;;;;4965091;28;19918;-58
2022/10/26 08:35:24;;;;;;;;;;;;;;;;;;4963303;28;19925;-58
2022/10/26 08:37:50;;;;;;;;;;;;;;;;;;4965687;28;19918;-58
2022/10/26 08:40:16;;;;;;;;;;;;;;;;;;4967464;28;19922;-58
2022/10/26 08:42:43;;;;;;;;;;;;;;;;;;4966778;28;19925;-57
2022/10/26 08:45:28;;;;;;;;;;;;;;;;;;4997621;28;20394;-58
2022/10/26 08:47:56;;;;;;;;;;;;;;;;;;4967405;28;20418;-59
2022/10/26 08:50:31;;;;;;;;;;;;;;;;;;4994101;28;19933;-58
2022/10/26 08:53:02;;;;;;;;;;;;;;;;;;4965092;28;19925;-58
2022/10/26 08:55:33;;;;;;;;;;;;;;;;;;4961978;28;19918;-58
2022/10/26 08:58:00;;;;;;;;;;;;;;;;;;4971303;28;19926;-59
2022/10/26 09:00:29;;;;;;;;;;;;;;;;;;4959970;28;19956;-58
2022/10/26 09:02:54;;;;;;;;;;;;;;;;;;5000869;28;20357;-57
2022/10/26 09:05:30;;;;;;;;;;;;;;;;;;4963989;28;19918;-57
2022/10/26 09:08:02;;;;;;;;;;;;;;;;;;4995792;28;19914;-58
2022/10/26 09:10:46;;;;;;;;;;;;;;;;;;4962147;28;19965;-57
2022/10/26 09:13:14;;;;;;;;;;;;;;;;;;4960883;28;19926;-58
2022/10/26 09:15:48;;;;;;;;;;;;;;;;;;4965769;28;20392;-58
2022/10/26 09:18:32;;;;;;;;;;;;;;;;;;4978522;28;19933;-58
2022/10/26 09:21:15;;;;;;;;;;;;;;;;;;4966993;28;20403;-58
2022/10/26 09:23:40;;;;;;;;;;;;;;;;;;4965814;28;20047;-58
2022/10/26 09:26:11;;;;;;;;;;;;;;;;;;4962271;28;20005;-58
2022/10/26 09:28:37;;;;;;;;;;;;;;;;;;4967043;28;20156;-58
2022/10/26 09:31:03;;;;;;;;;;;;;;;;;;4967403;28;20001;-58
2022/10/26 09:33:29;;;;;;;;;;;;;;;;;;4966660;28;19936;-58
2022/10/26 09:35:59;;;;;;;;;;;;;;;;;;4966253;28;19918;-58
2022/10/26 09:38:33;;;;;;;;;;;;;;;;;;4960727;28;20001;-58
2022/10/26 09:41:07;;;;;;;;;;;;;;;;;;4979367;28;20055;-58
2022/10/26 09:44:07;;;;;;;;;;;;;;;;;;4962440;28;20328;-58
2022/10/26 09:46:39;;;;;;;;;;;;;;;;;;4964524;28;19918;-58
2022/10/26 09:49:05;;;;;;;;;;;;;;;;;;4957160;28;19918;-58
2022/10/26 09:51:37;;;;;;;;;;;;;;;;;;4964849;28;20055;-58
2022/10/26 09:54:04;;;;;;;;;;;;;;;;;;4963707;28;19934;-58
2022/10/26 09:56:30;;;;;;;;;;;;;;;;;;4957863;28;20376;-58
2022/10/26 09:59:00;;;;;;;;;;;;;;;;;;4962160;28;19922;-58
2022/10/26 10:01:26;;;;;;;;;;;;;;;;;;4988723;28;19917;-58
2022/10/26 10:04:07;;;;;;;;;;;;;;;;;;4967210;28;19944;-58
2022/10/26 10:06:33;;;;;;;;;;;;;;;;;;4962231;28;20028;-58
2022/10/26 10:09:10;;;;;;;;;;;;;;;;;;5004378;28;20406;-58
2022/10/26 10:11:56;;;;;;;;;;;;;;;;;;4998024;28;19916;-58
2022/10/26 10:14:26;;;;;;;;;;;;;;;;;;4966951;28;19922;-58
2022/10/26 10:16:56;;;;;;;;;;;;;;;;;;4968702;28;19921;-58
2022/10/26 10:19:26;;;;;;;;;;;;;;;;;;4965162;28;20056;-58
2022/10/26 10:21:53;;;;;;;;;;;;;;;;;;4961129;28;19922;-59
2022/10/26 10:24:39;;;;;;;;;;;;;;;;;;4984180;28;19925;-58
2022/10/26 10:27:14;;;;;;;;;;;;;;;;;;4968860;28;19918;-58
2022/10/26 10:29:41;;;;;;;;;;;;;;;;;;4961460;28;19925;-58
2022/10/26 10:32:12;;;;;;;;;;;;;;;;;;4960643;28;19965;-58
2022/10/26 10:34:37;;;;;;;;;;;;;;;;;;4957159;28;19980;-58
2022/10/26 10:37:04;;;;;;;;;;;;;;;;;;4963692;28;20379;-58
2022/10/26 10:39:33;;;;;;;;;;;;;;;;;;4958798;28;19976;-58
2022/10/26 10:41:59;;;;;;;;;;;;;;;;;;4958913;28;19930;-59
2022/10/26 10:44:28;;;;;;;;;;;;;;;;;;4965025;28;19914;-59
2022/10/26 10:47:01;;;;;;;;;;;;;;;;;;4957297;28;20347;-59
2022/10/26 10:49:27;;;;;;;;;;;;;;;;;;4958657;28;19918;-59
2022/10/26 10:51:54;;;;;;;;;;;;;;;;;;4962967;28;19930;-59
2022/10/26 10:54:25;;;;;;;;;;;;;;;;;;4979941;28;20334;-58
2022/10/26 10:56:52;;;;;;;;;;;;;;;;;;4962211;28;19926;-59
2022/10/26 10:59:32;;;;;;;;;;;;;;;;;;4960761;28;19972;-59
2022/10/26 11:02:12;;;;;;;;;;;;;;;;;;4961522;28;19918;-59
2022/10/26 11:04:53;;;;;;;;;;;;;;;;;;4958182;28;20377;-59
2022/10/26 11:07:19;;;;;;;;;;;;;;;;;;4966415;28;20009;-57
2022/10/26 11:09:45;;;;;;;;;;;;;;;;;;4969236;28;20399;-59
2022/10/26 11:12:31;;;;;;;;;;;;;;;;;;4967107;28;19927;-59
2022/10/26 11:15:02;;;;;;;;;;;;;;;;;;4964352;28;20379;-60
2022/10/26 11:17:33;;;;;;;;;;;;;;;;;;4971235;28;19973;-59
2022/10/26 11:20:03;;;;;;;;;;;;;;;;;;4967783;28;19926;-59
2022/10/26 11:22:32;;;;;;;;;;;;;;;;;;4967282;28;20020;-59
2022/10/26 11:25:00;;;;;;;;;;;;;;;;;;4967599;28;19969;-60
2022/10/26 11:27:38;;;;;;;;;;;;;;;;;;4965662;28;19946;-59
2022/10/26 11:30:33;;;;;;;;;;;;;;;;;;4966532;28;20304;-59
2022/10/26 11:33:00;;;;;;;;;;;;;;;;;;4965437;28;19922;-58
2022/10/26 11:35:34;;;;;;;;;;;;;;;;;;4966598;28;19919;-58
2022/10/26 11:38:01;;;;;;;;;;;;;;;;;;4963835;28;19925;-58
2022/10/26 11:40:32;;;;;;;;;;;;;;;;;;4959979;28;20495;-58
2022/10/26 11:43:16;;;;;;;;;;;;;;;;;;4966372;28;19918;-59
2022/10/26 11:45:45;;;;;;;;;;;;;;;;;;4968073;28;19921;-60
2022/10/26 11:48:13;;;;;;;;;;;;;;;;;;4960701;28;20399;-60
2022/10/26 11:50:47;;;;;;;;;;;;;;;;;;4966437;28;20154;-60
2022/10/26 11:53:12;;;;;;;;;;;;;;;;;;4967692;28;19972;-60
2022/10/26 11:55:39;;;;;;;;;;;;;;;;;;4964109;28;20330;-60
2022/10/26 11:58:04;;;;;;;;;;;;;;;;;;4964478;28;20355;-60
2022/10/26 12:00:30;;;;;;;;;;;;;;;;;;4960725;28;19976;-60
2022/10/26 12:02:59;;;;;;;;;;;;;;;;;;4969110;28;20284;-60
2022/10/26 12:05:31;;;;;;;;;;;;;;;;;;4966419;28;19926;-60
2022/10/26 12:07:57;;;;;;;;;;;;;;;;;;4967023;28;19972;-60
2022/10/26 12:10:26;;;;;;;;;;;;;;;;;;4966812;28;19972;-61
2022/10/26 12:12:54;;;;;;;;;;;;;;;;;;4965931;28;19918;-61
2022/10/26 12:15:22;;;;;;;;;;;;;;;;;;4963659;28;19979;-61
2022/10/26 12:17:47;;;;;;;;;;;;;;;;;;4964240;28;19926;-62
2022/10/26 12:20:18;;;;;;;;;;;;;;;;;;4972371;28;19918;-62
2022/10/26 12:22:44;;;;;;;;;;;;;;;;;;4964468;28;19922;-62
2022/10/26 12:25:12;;;;;;;;;;;;;;;;;;4966705;28;19943;-62
2022/10/26 12:27:37;;;;;;;;;;;;;;;;;;4968816;28;20064;-60
2022/10/26 12:30:26;;;;;;;;;;;;;;;;;;4964603;28;20454;-60
2022/10/26 12:32:56;;;;;;;;;;;;;;;;;;4969054;28;20395;-60
2022/10/26 12:35:41;;;;;;;;;;;;;;;;;;4964516;28;19923;-60
2022/10/26 12:38:24;;;;;;;;;;;;;;;;;;4969142;28;20311;-60
2022/10/26 12:41:10;;;;;;;;;;;;;;;;;;4964013;28;20319;-61
2022/10/26 12:43:35;;;;;;;;;;;;;;;;;;4959854;28;19976;-60
2022/10/26 12:46:13;;;;;;;;;;;;;;;;;;4966806;28;19918;-60
2022/10/26 12:48:41;;;;;;;;;;;;;;;;;;4964530;28;20384;-58
2022/10/26 12:51:21;;;;;;;;;;;;;;;;;;4961466;28;19995;-58
2022/10/26 12:53:52;;;;;;;;;;;;;;;;;;4959395;28;19942;-60
2022/10/26 12:56:23;;;;;;;;;;;;;;;;;;4961339;28;19918;-60
2022/10/26 12:58:59;;;;;;;;;;;;;;;;;;4966137;28;19923;-60
2022/10/26 13:01:27;;;;;;;;;;;;;;;;;;4961837;28;20013;-58
2022/10/26 13:04:03;;;;;;;;;;;;;;;;;;4957260;28;19922;-59
2022/10/26 13:06:36;;;;;;;;;;;;;;;;;;4964678;28;20009;-59
2022/10/26 13:09:06;;;;;;;;;;;;;;;;;;4970518;28;20384;-59
2022/10/26 13:11:34;;;;;;;;;;;;;;;;;;4958589;28;19922;-59
2022/10/26 13:14:04;;;;;;;;;;;;;;;;;;4956539;28;19924;-59
2022/10/26 13:16:29;;;;;;;;;;;;;;;;;;4958664;28;19922;-59
2022/10/26 13:18:55;;;;;;;;;;;;;;;;;;4968389;28;19922;-59
2022/10/26 13:21:22;;;;;;;;;;;;;;;;;;4969669;28;19922;-59
2022/10/26 13:23:53;;;;;;;;;;;;;;;;;;4968246;28;19918;-59
2022/10/26 13:26:23;;;;;;;;;;;;;;;;;;4965279;28;19918;-59
2022/10/26 13:28:52;;;;;;;;;;;;;;;;;;4958584;28;19925;-59
2022/10/26 13:31:30;;;;;;;;;;;;;;;;;;4964292;28;19922;-59
2022/10/26 13:34:00;;;;;;;;;;;;;;;;;;4965860;28;19918;-59
2022/10/26 13:36:31;;;;;;;;;;;;;;;;;;4961429;28;19918;-59
2022/10/26 13:38:59;;;;;;;;;;;;;;;;;;4964772;28;20331;-59
2022/10/26 13:41:29;;;;;;;;;;;;;;;;;;4967960;28;20343;-61
2022/10/26 13:43:56;;;;;;;;;;;;;;;;;;4960317;28;19971;-58
2022/10/26 13:46:24;;;;;;;;;;;;;;;;;;4966465;28;19914;-60
2022/10/26 13:48:50;;;;;;;;;;;;;;;;;;4967655;28;19924;-59
2022/10/26 13:51:24;;;;;;;;;;;;;;;;;;4981004;28;19964;-60
2022/10/26 13:53:51;;;;;;;;;;;;;;;;;;4966699;28;20315;-60
2022/10/26 13:56:32;;;;;;;;;;;;;;;;;;4963287;28;19946;-59
2022/10/26 13:59:01;;;;;;;;;;;;;;;;;;4964498;28;20017;-58
2022/10/26 14:01:27;;;;;;;;;;;;;;;;;;4955470;28;20315;-58
2022/10/26 14:03:53;;;;;;;;;;;;;;;;;;4957666;28;19923;-58
2022/10/26 14:06:30;;;;;;;;;;;;;;;;;;4963180;28;19918;-59
2022/10/26 14:08:57;;;;;;;;;;;;;;;;;;4964807;28;20482;-59
2022/10/26 14:11:43;;;;;;;;;;;;;;;;;;4959367;28;19926;-58
2022/10/26 14:14:31;;;;;;;;;;;;;;;;;;4960570;28;20017;-58
2022/10/26 14:16:57;;;;;;;;;;;;;;;;;;4962012;28;20004;-57
2022/10/26 14:19:31;;;;;;;;;;;;;;;;;;4969103;28;20464;-58
2022/10/26 14:21:57;;;;;;;;;;;;;;;;;;4967790;28;19921;-58
2022/10/26 14:24:32;;;;;;;;;;;;;;;;;;4966258;28;19922;-57
2022/10/26 14:26:58;;;;;;;;;;;;;;;;;;4966585;28;19918;-59
2022/10/26 14:29:24;;;;;;;;;;;;;;;;;;4961704;28;19918;-57
2022/10/26 14:31:50;;;;;;;;;;;;;;;;;;4965359;28;19914;-59
2022/10/26 14:34:16;;;;;;;;;;;;;;;;;;4962963;28;19940;-58
2022/10/26 14:36:47;;;;;;;;;;;;;;;;;;4960152;28;20015;-58
2022/10/26 14:39:35;;;;;;;;;;;;;;;;;;4958835;28;19926;-58
2022/10/26 14:42:01;;;;;;;;;;;;;;;;;;4958030;28;20463;-58
2022/10/26 14:44:28;;;;;;;;;;;;;;;;;;4957845;28;19957;-59
2022/10/26 14:46:53;;;;;;;;;;;;;;;;;;4954720;28;20388;-59
2022/10/26 14:49:23;;;;;;;;;;;;;;;;;;4956077;28;19948;-58
2022/10/26 14:51:54;;;;;;;;;;;;;;;;;;4965144;28;19918;-59
2022/10/26 14:54:21;;;;;;;;;;;;;;;;;;4955450;28;19953;-59
2022/10/26 14:56:46;;;;;;;;;;;;;;;;;;4956648;28;19918;-58
2022/10/26 14:59:17;;;;;;;;;;;;;;;;;;4955563;28;19933;-58
2022/10/26 15:01:47;;;;;;;;;;;;;;;;;;4955054;28;19926;-59
2022/10/26 15:04:25;;;;;;;;;;;;;;;;;;4953200;28;20381;-58
2022/10/26 15:06:50;;;;;;;;;;;;;;;;;;4954493;28;20009;-58
2022/10/26 15:09:30;;;;;;;;;;;;;;;;;;4954627;28;20090;-58
2022/10/26 15:11:55;;;;;;;;;;;;;;;;;;4959492;28;20017;-58
2022/10/26 15:14:20;;;;;;;;;;;;;;;;;;4962919;28;20413;-58
2022/10/26 15:16:53;;;;;;;;;;;;;;;;;;4957822;28;20003;-58
2022/10/26 15:19:22;;;;;;;;;;;;;;;;;;4959687;28;19953;-58
2022/10/26 15:21:49;;;;;;;;;;;;;;;;;;4956224;28;19968;-58
2022/10/26 15:24:28;;;;;;;;;;;;;;;;;;4954935;28;20455;-59
2022/10/26 15:26:54;;;;;;;;;;;;;;;;;;4962757;28;19932;-59
2022/10/26 15:29:35;;;;;;;;;;;;;;;;;;4960086;28;19926;-54
2022/10/26 15:32:01;;;;;;;;;;;;;;;;;;4948655;28;19919;-58
2022/10/26 15:34:27;;;;;;;;;;;;;;;;;;4952458;28;19922;-58
2022/10/26 15:36:52;;;;;;;;;;;;;;;;;;4949280;28;20303;-58
2022/10/26 15:39:17;;;;;;;;;;;;;;;;;;4952851;28;20399;-58
2022/10/26 15:41:46;;;;;;;;;;;;;;;;;;4957041;28;19925;-58
2022/10/26 15:44:14;;;;;;;;;;;;;;;;;;4959726;28;20414;-58
2022/10/26 15:46:40;;;;;;;;;;;;;;;;;;4958611;28;19931;-58
2022/10/26 15:49:06;;;;;;;;;;;;;;;;;;4958188;28;19972;-58
2022/10/26 15:51:32;;;;;;;;;;;;;;;;;;4955856;28;19922;-58
2022/10/26 15:53:57;;;;;;;;;;;;;;;;;;4957331;28;19918;-58
2022/10/26 15:56:24;;;;;;;;;;;;;;;;;;4962725;28;19926;-58
2022/10/26 15:58:49;;;;;;;;;;;;;;;;;;4966103;28;19929;-58
2022/10/26 16:01:16;;;;;;;;;;;;;;;;;;4958546;28;20001;-58
2022/10/26 16:03:41;;;;;;;;;;;;;;;;;;4957225;28;20495;-58
2022/10/26 16:06:11;;;;;;;;;;;;;;;;;;4958410;28;19940;-58
2022/10/26 16:08:36;;;;;;;;;;;;;;;;;;4959359;28;20425;-58
2022/10/26 16:11:01;;;;;;;;;;;;;;;;;;4964295;28;20029;-57
2022/10/26 16:13:26;;;;;;;;;;;;;;;;;;4962319;28;19922;-57
2022/10/26 16:15:52;;;;;;;;;;;;;;;;;;4962282;28;20388;-57
2022/10/26 16:18:17;;;;;;;;;;;;;;;;;;4971111;28;20288;-58
2022/10/26 16:20:44;;;;;;;;;;;;;;;;;;4964278;28;19999;-58
2022/10/26 16:23:09;;;;;;;;;;;;;;;;;;4966118;28;19918;-57
2022/10/26 16:25:39;;;;;;;;;;;;;;;;;;4968524;28;20375;-58
2022/10/26 16:28:04;;;;;;;;;;;;;;;;;;4961796;28;19922;-58
2022/10/26 16:30:30;;;;;;;;;;;;;;;;;;4965954;28;19922;-57
2022/10/26 16:32:55;;;;;;;;;;;;;;;;;;4964579;28;19925;-58
2022/10/26 16:35:20;;;;;;;;;;;;;;;;;;4965599;28;19961;-57
2022/10/26 16:37:46;;;;;;;;;;;;;;;;;;4967866;28;19918;-58
2022/10/26 16:40:11;;;;;;;;;;;;;;;;;;4943313;28;19926;-57
2022/10/26 16:42:36;;;;;;;;;;;;;;;;;;4959921;28;20013;-58
2022/10/26 16:45:02;;;;;;;;;;;;;;;;;;4960880;28;19967;-58
2022/10/26 16:47:27;;;;;;;;;;;;;;;;;;4956458;28;19926;-57
2022/10/26 16:49:53;;;;;;;;;;;;;;;;;;4965355;28;19926;-57
2022/10/26 16:52:18;;;;;;;;;;;;;;;;;;4962056;28;19975;-57
2022/10/26 16:54:43;;;;;;;;;;;;;;;;;;4958389;28;19957;-57
2022/10/26 16:57:09;;;;;;;;;;;;;;;;;;4960207;28;19925;-57